createdAt,value
2022-08-28T00:00:05.772Z,8.18
2022-08-28T00:02:38.415Z,7.60
2022-08-28T00:05:08.805Z,7.85
2022-08-28T00:07:38.664Z,7.93
2022-08-28T00:10:09.726Z,8.38
2022-08-28T00:12:40.009Z,8.65
2022-08-28T00:15:11.974Z,7.75
2022-08-28T00:17:45.211Z,7.82
2022-08-28T00:23:00.489Z,7.70
2022-08-28T00:25:32.213Z,7.60
2022-08-28T00:28:00.671Z,8.23
2022-08-28T00:30:36.366Z,8.05
2022-08-28T00:33:10.732Z,8.35
2022-08-28T00:35:40.977Z,8.50
2022-08-28T00:38:11.002Z,7.97
2022-08-28T00:40:41.679Z,8.18
2022-08-28T00:43:12.181Z,8.45
2022-08-28T00:45:41.761Z,8.32
2022-08-28T00:48:14.121Z,8.18
2022-08-28T00:51:00.658Z,7.60
2022-08-28T00:53:32.910Z,7.97
2022-08-28T00:56:06.934Z,8.50
2022-08-28T00:58:43.182Z,8.02
2022-08-28T01:01:13.147Z,8.32
2022-08-28T01:03:45.720Z,8.13
2022-08-28T01:06:16.475Z,8.10
2022-08-28T01:08:50.520Z,8.98
2022-08-28T01:11:21.291Z,8.93
2022-08-28T01:13:51.344Z,8.40
2022-08-28T01:16:23.148Z,8.52
2022-08-28T01:19:03.376Z,8.10
2022-08-28T01:21:35.549Z,8.68
2022-08-28T01:24:10.238Z,7.60
2022-08-28T01:26:40.259Z,8.60
2022-08-28T01:29:10.397Z,7.60
2022-08-28T01:31:40.761Z,8.05
2022-08-28T01:34:12.182Z,7.68
2022-08-28T01:36:42.088Z,8.75
2022-08-28T01:39:15.641Z,8.90
2022-08-28T01:41:46.942Z,7.50
2022-08-28T01:44:17.899Z,7.93
2022-08-28T01:46:48.313Z,7.88
2022-08-28T01:49:18.113Z,7.22
2022-08-28T01:51:47.707Z,7.03
2022-08-28T01:54:20.930Z,6.88
2022-08-28T01:56:51.137Z,7.20
2022-08-28T01:59:21.194Z,7.50
2022-08-28T02:01:50.983Z,8.50
2022-08-28T02:04:20.678Z,8.15
2022-08-28T02:06:59.244Z,7.93
2022-08-28T02:09:32.105Z,8.68
2022-08-28T02:12:01.794Z,8.10
2022-08-28T02:14:32.299Z,8.50
2022-08-28T02:17:01.943Z,7.68
2022-08-28T02:19:32.360Z,8.30
2022-08-28T02:22:01.971Z,8.43
2022-08-28T02:24:34.168Z,8.48
2022-08-28T02:27:07.136Z,9.20
2022-08-28T02:29:36.713Z,8.30
2022-08-28T02:32:07.020Z,8.45
2022-08-28T02:34:36.650Z,8.55
2022-08-28T02:37:08.893Z,8.55
2022-08-28T02:39:41.199Z,8.88
2022-08-28T02:42:10.826Z,8.23
2022-08-28T02:44:42.731Z,8.93
2022-08-28T02:47:12.326Z,8.20
2022-08-28T02:49:41.930Z,8.25
2022-08-28T02:52:11.595Z,7.75
2022-08-28T02:54:44.115Z,7.82
2022-08-28T02:57:14.317Z,8.57
2022-08-28T02:59:44.088Z,7.95
2022-08-28T03:02:13.922Z,8.18
2022-08-28T03:04:44.818Z,7.68
2022-08-28T03:07:15.434Z,8.80
2022-08-28T03:09:47.741Z,8.00
2022-08-28T03:12:17.447Z,8.98
2022-08-28T03:14:47.070Z,8.43
2022-08-28T03:17:16.714Z,8.43
2022-08-28T03:19:46.348Z,8.10
2022-08-28T03:22:17.146Z,8.70
2022-08-28T03:24:46.790Z,8.27
2022-08-28T03:27:16.393Z,9.38
2022-08-28T03:29:46.037Z,8.02
2022-08-28T03:32:15.636Z,8.35
2022-08-28T03:34:45.212Z,8.38
2022-08-28T03:37:14.821Z,8.25
2022-08-28T03:39:44.462Z,8.38
2022-08-28T03:42:16.717Z,7.07
2022-08-28T03:44:46.816Z,8.55
2022-08-28T03:47:16.400Z,7.47
2022-08-28T03:49:46.230Z,7.65
2022-08-28T03:52:15.847Z,7.60
2022-08-28T03:54:45.573Z,8.93
2022-08-28T03:57:19.059Z,8.55
2022-08-28T03:59:49.253Z,8.57
2022-08-28T04:02:20.713Z,8.63
2022-08-28T04:04:50.320Z,8.10
2022-08-28T04:07:20.092Z,8.40
2022-08-28T04:09:49.943Z,8.45
2022-08-28T04:12:22.223Z,7.97
2022-08-28T04:14:51.792Z,8.85
2022-08-28T04:17:21.376Z,8.02
2022-08-28T04:19:50.988Z,8.07
2022-08-28T04:22:20.560Z,9.63
2022-08-28T04:24:53.253Z,9.07
2022-08-28T04:27:25.461Z,9.52
2022-08-28T04:29:55.073Z,9.02
2022-08-28T04:32:25.101Z,8.68
2022-08-28T04:34:54.743Z,8.98
2022-08-28T04:37:27.916Z,9.75
2022-08-28T04:39:57.748Z,9.55
2022-08-28T04:42:29.983Z,10.63
2022-08-28T04:45:00.142Z,9.65
2022-08-28T04:47:30.389Z,9.40
2022-08-28T04:50:00.599Z,9.15
2022-08-28T04:52:30.192Z,9.95
2022-08-28T04:54:59.789Z,9.25
2022-08-28T04:57:36.114Z,9.25
2022-08-28T05:00:07.149Z,9.00
2022-08-28T05:02:37.022Z,9.77
2022-08-28T05:05:07.060Z,9.27
2022-08-28T05:07:36.638Z,9.93
2022-08-28T05:10:06.505Z,10.05
2022-08-28T05:12:40.432Z,8.65
2022-08-28T05:15:10.790Z,10.05
2022-08-28T05:17:40.399Z,9.52
2022-08-28T05:20:10.619Z,9.48
2022-08-28T05:22:40.253Z,10.10
2022-08-28T05:25:10.248Z,11.63
2022-08-28T05:27:42.568Z,10.57
2022-08-28T05:30:12.924Z,9.80
2022-08-28T05:32:44.817Z,9.13
2022-08-28T05:35:14.761Z,8.75
2022-08-28T05:37:44.361Z,9.50
2022-08-28T05:40:14.462Z,10.07
2022-08-28T05:42:47.764Z,9.55
2022-08-28T05:45:17.364Z,9.07
2022-08-28T05:47:47.077Z,9.30
2022-08-28T05:50:16.698Z,9.50
2022-08-28T05:52:46.753Z,9.45
2022-08-28T05:55:18.484Z,9.90
2022-08-28T05:57:50.644Z,9.80
2022-08-28T06:00:20.321Z,9.13
2022-08-28T06:02:50.237Z,9.43
2022-08-28T06:05:20.408Z,11.98
2022-08-28T06:07:52.656Z,10.13
2022-08-28T06:10:22.271Z,10.10
2022-08-28T06:12:55.552Z,8.35
2022-08-28T06:15:27.055Z,9.07
2022-08-28T06:17:56.737Z,10.32
2022-08-28T06:20:26.332Z,10.80
2022-08-28T06:22:55.956Z,9.30
2022-08-28T06:25:25.536Z,9.85
2022-08-28T06:27:57.742Z,9.00
2022-08-28T06:30:27.372Z,9.40
2022-08-28T06:32:59.854Z,10.13
2022-08-28T06:35:30.273Z,11.40
2022-08-28T06:38:00.095Z,11.35
2022-08-28T06:40:30.017Z,13.27
2022-08-28T06:43:02.970Z,13.35
2022-08-28T06:45:32.615Z,13.15
2022-08-28T06:48:02.287Z,11.77
2022-08-28T06:50:31.880Z,10.40
2022-08-28T06:53:01.505Z,10.50
2022-08-28T06:55:31.144Z,9.65
2022-08-28T06:58:05.460Z,9.65
2022-08-28T07:00:35.583Z,9.27
2022-08-28T07:03:06.073Z,8.60
2022-08-28T07:05:36.020Z,8.45
2022-08-28T07:08:05.990Z,8.23
2022-08-28T07:10:35.679Z,7.80
2022-08-28T07:13:08.050Z,8.02
2022-08-28T07:15:37.768Z,9.27
2022-08-28T07:18:11.587Z,9.20
2022-08-28T07:20:41.381Z,9.88
2022-08-28T07:23:11.062Z,8.20
2022-08-28T07:25:42.221Z,10.13
2022-08-28T07:28:14.530Z,9.20
2022-08-28T07:30:44.542Z,8.43
2022-08-28T07:33:14.508Z,9.45
2022-08-28T07:35:46.509Z,8.80
2022-08-28T07:38:16.172Z,9.27
2022-08-28T07:40:46.153Z,9.27
2022-08-28T07:43:30.746Z,9.77
2022-08-28T07:46:01.532Z,9.15
2022-08-28T07:48:31.199Z,8.02
2022-08-28T07:51:00.812Z,8.30
2022-08-28T07:53:34.392Z,8.57
2022-08-28T07:56:06.147Z,8.23
2022-08-28T07:58:38.902Z,9.18
2022-08-28T08:01:08.698Z,8.02
2022-08-28T08:03:38.345Z,7.95
2022-08-28T08:06:08.710Z,8.73
2022-08-28T08:08:38.300Z,7.95
2022-08-28T08:11:11.207Z,7.28
2022-08-28T08:13:46.516Z,7.22
2022-08-28T08:16:21.809Z,7.18
2022-08-28T08:18:51.671Z,7.32
2022-08-28T08:21:21.969Z,6.32
2022-08-28T08:23:52.221Z,7.28
2022-08-28T08:26:24.107Z,6.15
2022-08-28T08:28:56.783Z,5.72
2022-08-28T08:31:27.522Z,4.78
2022-08-28T08:33:58.777Z,5.28
2022-08-28T08:36:29.174Z,4.35
2022-08-28T08:39:00.306Z,4.90
2022-08-28T08:41:32.947Z,4.10
2022-08-28T08:44:08.171Z,4.72
2022-08-28T08:46:40.702Z,4.47
2022-08-28T08:49:15.724Z,3.85
2022-08-28T08:51:46.038Z,3.42
2022-08-28T08:54:17.326Z,3.70
2022-08-28T08:56:47.908Z,4.18
2022-08-28T08:59:21.615Z,4.63
2022-08-28T09:01:53.441Z,4.00
2022-08-28T09:04:29.992Z,3.95
2022-08-28T09:07:02.649Z,3.78
2022-08-28T09:09:33.397Z,3.85
2022-08-28T09:12:05.008Z,3.30
2022-08-28T09:14:48.473Z,3.50
2022-08-28T09:17:19.554Z,3.65
2022-08-28T09:19:49.625Z,3.17
2022-08-28T09:22:19.238Z,3.63
2022-08-28T09:24:48.955Z,3.55
2022-08-28T09:27:30.217Z,3.67
2022-08-28T09:30:07.517Z,5.40
2022-08-28T09:32:38.866Z,5.80
2022-08-28T09:35:14.009Z,5.47
2022-08-28T09:37:44.325Z,5.45
2022-08-28T09:40:17.571Z,6.10
2022-08-28T09:43:11.882Z,5.78
2022-08-28T09:45:44.163Z,5.53
2022-08-28T09:48:22.161Z,4.97
2022-08-28T09:51:03.855Z,5.25
2022-08-28T09:53:34.775Z,5.20
2022-08-28T09:56:17.009Z,4.93
2022-08-28T09:58:48.165Z,4.95
2022-08-28T10:01:32.759Z,5.40
2022-08-28T10:04:09.076Z,5.30
2022-08-28T10:06:39.334Z,4.13
2022-08-28T10:09:21.140Z,4.10
2022-08-28T10:11:54.305Z,4.45
2022-08-28T10:14:31.814Z,4.38
2022-08-28T10:17:10.552Z,4.53
2022-08-28T10:19:44.555Z,4.05
2022-08-28T10:22:20.158Z,4.22
2022-08-28T10:24:59.151Z,4.20
2022-08-28T10:27:37.779Z,4.68
2022-08-28T10:30:12.917Z,4.50
2022-08-28T10:32:55.338Z,4.07
2022-08-28T10:35:26.595Z,5.35
2022-08-28T10:38:01.407Z,4.68
2022-08-28T10:40:32.429Z,4.60
2022-08-28T10:43:05.018Z,4.35
2022-08-28T10:45:36.146Z,4.57
2022-08-28T10:48:13.016Z,4.70
2022-08-28T10:50:45.702Z,4.45
2022-08-28T10:53:18.287Z,4.60
2022-08-28T10:55:54.117Z,4.03
2022-08-28T10:58:26.235Z,4.40
2022-08-28T11:00:57.871Z,3.45
2022-08-28T11:03:35.257Z,3.92
2022-08-28T11:06:08.815Z,3.95
2022-08-28T11:08:39.749Z,3.80
2022-08-28T11:11:13.639Z,3.17
2022-08-28T11:13:46.159Z,3.20
2022-08-28T11:16:21.141Z,3.38
2022-08-28T11:19:05.586Z,3.70
2022-08-28T11:21:39.255Z,3.00
2022-08-28T11:24:09.982Z,2.65
2022-08-28T11:26:43.838Z,2.53
2022-08-28T11:29:13.456Z,2.33
2022-08-28T11:31:43.559Z,1.90
2022-08-28T11:34:28.081Z,2.00
2022-08-28T11:37:07.070Z,1.88
2022-08-28T11:42:32.383Z,1.55
2022-08-28T11:45:02.813Z,1.63
2022-08-28T11:47:48.857Z,1.70
2022-08-28T11:50:26.899Z,1.23
2022-08-28T11:53:14.749Z,1.60
2022-08-28T11:55:53.506Z,1.63
2022-08-28T11:58:27.425Z,1.63
2022-08-28T12:01:00.766Z,1.70
2022-08-28T12:03:39.295Z,2.00
2022-08-28T12:06:09.915Z,1.85
2022-08-28T12:08:55.633Z,1.60
2022-08-28T12:11:40.212Z,2.10
2022-08-28T12:14:12.832Z,1.75
2022-08-28T12:16:57.366Z,1.73
2022-08-28T12:19:29.961Z,2.10
2022-08-28T12:21:59.571Z,2.22
2022-08-28T12:24:29.145Z,2.07
2022-08-28T12:26:59.475Z,2.08
2022-08-28T12:29:35.205Z,2.38
2022-08-28T12:32:20.437Z,2.78
2022-08-28T12:34:53.130Z,2.92
2022-08-28T12:37:51.427Z,2.80
2022-08-28T12:40:23.986Z,2.35
2022-08-28T12:42:56.124Z,2.75
2022-08-28T12:45:30.468Z,1.95
2022-08-28T12:48:03.011Z,1.95
2022-08-28T12:50:35.559Z,2.47
2022-08-28T12:53:06.888Z,2.47
2022-08-28T12:55:36.918Z,1.80
2022-08-28T12:58:07.365Z,1.80
2022-08-28T13:00:51.604Z,1.80
2022-08-28T13:03:21.322Z,1.60
2022-08-28T13:05:58.801Z,1.58
2022-08-28T13:08:28.979Z,1.30
2022-08-28T13:10:59.387Z,1.30
2022-08-28T13:13:33.572Z,1.20
2022-08-28T13:16:06.336Z,1.92
2022-08-28T13:18:40.443Z,1.23
2022-08-28T13:21:32.931Z,1.10
2022-08-28T13:24:24.358Z,1.40
2022-08-28T13:27:02.437Z,1.35
2022-08-28T13:29:32.550Z,1.07
2022-08-28T13:32:06.077Z,1.40
2022-08-28T13:34:36.961Z,1.17
2022-08-28T13:37:14.718Z,1.55
2022-08-28T13:39:50.126Z,1.55
2022-08-28T13:42:20.005Z,1.35
2022-08-28T13:44:50.843Z,1.20
2022-08-28T13:47:23.291Z,1.40
2022-08-28T13:49:52.944Z,1.27
2022-08-28T13:52:22.550Z,1.40
2022-08-28T13:54:52.138Z,1.20
2022-08-28T13:57:21.718Z,1.00
2022-08-28T13:59:55.391Z,1.17
2022-08-28T14:02:40.590Z,1.75
2022-08-28T14:05:10.658Z,1.30
2022-08-28T14:07:40.253Z,1.00
2022-08-28T14:10:14.608Z,1.88
2022-08-28T14:12:46.852Z,1.85
2022-08-28T14:15:17.192Z,1.67
2022-08-28T14:17:49.398Z,1.98
2022-08-28T14:20:19.102Z,2.03
2022-08-28T14:22:48.724Z,1.73
2022-08-28T14:25:18.417Z,2.03
2022-08-28T14:27:48.024Z,2.05
2022-08-28T14:30:20.079Z,1.90
2022-08-28T14:32:52.295Z,1.55
2022-08-28T14:35:22.056Z,1.80
2022-08-28T14:37:51.652Z,1.88
2022-08-28T14:40:21.398Z,1.77
2022-08-28T14:42:57.129Z,1.98
2022-08-28T14:45:26.777Z,1.58
2022-08-28T14:47:59.026Z,1.60
2022-08-28T14:50:28.617Z,1.60
2022-08-28T14:52:58.177Z,1.90
2022-08-28T14:55:30.846Z,1.73
2022-08-28T14:58:00.481Z,1.67
2022-08-28T15:00:30.269Z,2.00
2022-08-28T15:03:02.472Z,2.10
2022-08-28T15:05:32.078Z,2.00
2022-08-28T15:08:01.656Z,1.95
2022-08-28T15:10:31.341Z,1.90
2022-08-28T15:13:01.075Z,2.30
2022-08-28T15:15:31.263Z,2.30
2022-08-28T15:18:03.440Z,1.90
2022-08-28T15:20:33.581Z,2.25
2022-08-28T15:23:03.172Z,1.98
2022-08-28T15:25:32.844Z,2.10
2022-08-28T15:28:02.428Z,1.75
2022-08-28T15:30:32.057Z,2.25
2022-08-28T15:33:04.349Z,2.35
2022-08-28T15:35:34.561Z,2.42
2022-08-28T15:38:04.201Z,2.20
2022-08-28T15:40:46.183Z,2.35
2022-08-28T15:43:15.932Z,2.15
2022-08-28T15:45:45.629Z,2.22
2022-08-28T15:48:18.274Z,1.75
2022-08-28T15:50:47.902Z,2.20
2022-08-28T15:53:18.219Z,2.20
2022-08-28T15:55:48.110Z,2.15
2022-08-28T15:58:17.695Z,1.63
2022-08-28T16:00:47.296Z,1.85
2022-08-28T16:03:19.919Z,1.83
2022-08-28T16:05:49.699Z,2.42
2022-08-28T16:08:19.312Z,2.05
2022-08-28T16:10:50.020Z,2.15
2022-08-28T16:13:20.389Z,2.00
2022-08-28T16:15:49.974Z,2.10
2022-08-28T16:18:22.220Z,2.45
2022-08-28T16:20:51.749Z,2.20
2022-08-28T16:23:21.356Z,2.40
2022-08-28T16:25:50.990Z,1.90
2022-08-28T16:28:20.559Z,1.92
2022-08-28T16:30:50.337Z,2.53
2022-08-28T16:33:22.949Z,2.20
2022-08-28T16:35:55.008Z,2.47
2022-08-28T16:38:26.948Z,2.65
2022-08-28T16:40:56.636Z,2.47
2022-08-28T16:43:26.239Z,2.33
2022-08-28T16:45:56.075Z,2.38
2022-08-28T16:48:28.257Z,2.15
2022-08-28T16:50:57.947Z,1.95
2022-08-28T16:53:27.637Z,2.50
2022-08-28T16:55:58.618Z,2.33
2022-08-28T16:58:28.242Z,2.30
2022-08-28T17:00:57.927Z,2.67
2022-08-28T17:03:30.397Z,2.72
2022-08-28T17:06:00.602Z,2.40
2022-08-28T17:08:30.191Z,2.40
2022-08-28T17:10:59.967Z,2.80
2022-08-28T17:13:29.544Z,2.47
2022-08-28T17:15:59.182Z,2.40
2022-08-28T17:18:31.414Z,3.10
2022-08-28T17:21:13.446Z,2.83
2022-08-28T17:23:43.104Z,2.95
2022-08-28T17:26:12.792Z,3.00
2022-08-28T17:28:42.408Z,3.00
2022-08-28T17:31:12.125Z,3.63
2022-08-28T17:33:45.547Z,4.20
2022-08-28T17:36:22.282Z,3.95
2022-08-28T17:39:03.680Z,4.25
2022-08-28T17:41:33.927Z,5.60
2022-08-28T17:44:03.568Z,4.68
2022-08-28T17:46:37.436Z,5.28
2022-08-28T17:49:10.618Z,4.70
2022-08-28T17:51:43.515Z,5.30
2022-08-28T17:54:14.825Z,4.95
2022-08-28T17:56:45.025Z,4.80
2022-08-28T17:59:14.782Z,4.88
2022-08-28T18:01:45.120Z,4.57
2022-08-28T18:04:23.266Z,5.25
2022-08-28T18:06:54.944Z,5.35
2022-08-28T18:09:25.711Z,4.88
2022-08-28T18:11:55.355Z,5.75
2022-08-28T18:14:24.949Z,4.65
2022-08-28T18:16:54.563Z,6.18
2022-08-28T18:19:26.810Z,5.88
2022-08-28T18:21:56.432Z,5.28
2022-08-28T18:24:26.253Z,5.57
2022-08-28T18:26:57.935Z,5.43
2022-08-28T18:29:27.951Z,5.57
2022-08-28T18:32:02.039Z,5.32
2022-08-28T18:34:34.999Z,5.97
2022-08-28T18:37:04.945Z,5.05
2022-08-28T18:39:36.071Z,5.35
2022-08-28T18:42:06.112Z,5.43
2022-08-28T18:44:35.891Z,5.65
2022-08-28T18:47:06.274Z,5.88
2022-08-28T18:49:38.566Z,4.70
2022-08-28T18:52:08.520Z,5.50
2022-08-28T18:54:38.567Z,5.93
2022-08-28T18:57:08.686Z,5.22
2022-08-28T18:59:41.575Z,6.25
2022-08-28T19:02:11.448Z,5.20
2022-08-28T19:04:44.757Z,6.00
2022-08-28T19:07:14.792Z,5.30
2022-08-28T19:09:44.564Z,5.20
2022-08-28T19:12:14.527Z,5.30
2022-08-28T19:14:44.475Z,4.40
2022-08-28T19:17:19.031Z,5.47
2022-08-28T19:19:54.070Z,4.72
2022-08-28T19:22:24.656Z,5.20
2022-08-28T19:24:58.483Z,5.05
2022-08-28T19:27:28.820Z,5.05
2022-08-28T19:29:58.733Z,4.70
2022-08-28T19:32:28.568Z,4.63
2022-08-28T19:35:02.085Z,5.00
2022-08-28T19:37:32.469Z,4.88
2022-08-28T19:40:02.286Z,5.15
2022-08-28T19:42:32.121Z,5.55
2022-08-28T19:45:02.002Z,4.53
2022-08-28T19:47:33.930Z,4.78
2022-08-28T19:50:09.677Z,4.00
2022-08-28T19:52:39.563Z,4.28
2022-08-28T19:55:09.851Z,5.43
2022-08-28T19:57:39.870Z,4.97
2022-08-28T20:00:10.213Z,4.57
2022-08-28T20:02:39.872Z,4.60
2022-08-28T20:05:12.954Z,4.35
2022-08-28T20:07:43.703Z,5.38
2022-08-28T20:10:14.537Z,4.45
2022-08-28T20:12:48.440Z,4.70
2022-08-28T20:15:19.892Z,4.60
2022-08-28T20:17:49.899Z,4.78
2022-08-28T20:20:26.805Z,4.10
2022-08-28T20:22:59.430Z,4.25
2022-08-28T20:25:29.230Z,4.20
2022-08-28T20:28:01.663Z,3.65
2022-08-28T20:30:31.595Z,3.75
2022-08-28T20:33:02.764Z,4.15
2022-08-28T20:35:35.059Z,4.00
2022-08-28T20:38:04.698Z,3.33
2022-08-28T20:40:34.441Z,3.90
2022-08-28T20:43:04.060Z,3.70
2022-08-28T20:45:33.961Z,3.72
2022-08-28T20:48:03.572Z,3.60
2022-08-28T20:50:35.843Z,3.50
2022-08-28T20:53:05.488Z,3.72
2022-08-28T20:55:35.068Z,3.38
2022-08-28T20:58:04.688Z,3.63
2022-08-28T21:00:34.272Z,3.47
2022-08-28T21:03:03.969Z,4.00
2022-08-28T21:05:36.236Z,3.13
2022-08-28T21:08:06.049Z,4.60
2022-08-28T21:10:42.821Z,3.15
2022-08-28T21:13:12.624Z,3.83
2022-08-28T21:15:42.580Z,3.50
2022-08-28T21:18:12.269Z,3.53
2022-08-28T21:20:45.433Z,3.97
2022-08-28T21:23:15.058Z,4.03
2022-08-28T21:25:44.688Z,3.97
2022-08-28T21:28:14.269Z,3.95
2022-08-28T21:30:44.064Z,4.40
2022-08-28T21:33:13.659Z,4.18
2022-08-28T21:35:46.845Z,4.10
2022-08-28T21:38:16.424Z,4.30
2022-08-28T21:40:46.109Z,4.60
2022-08-28T21:43:15.792Z,4.28
2022-08-28T21:45:45.468Z,3.92
2022-08-28T21:48:15.311Z,3.90
2022-08-28T21:50:47.811Z,4.43
2022-08-28T21:53:19.913Z,4.35
2022-08-28T21:55:53.438Z,3.85
2022-08-28T21:58:23.941Z,4.30
2022-08-28T22:00:54.960Z,4.05
2022-08-28T22:03:24.711Z,4.20
2022-08-28T22:05:57.542Z,4.00
2022-08-28T22:08:28.771Z,4.53
2022-08-28T22:10:58.894Z,4.80
2022-08-28T22:13:28.462Z,4.22
2022-08-28T22:15:58.066Z,4.20
2022-08-28T22:18:32.053Z,4.00
2022-08-28T22:21:19.131Z,4.57
2022-08-28T22:23:49.239Z,4.43
2022-08-28T22:26:20.669Z,4.45
2022-08-28T22:28:50.583Z,4.68
2022-08-28T22:31:20.136Z,4.30
2022-08-28T22:33:50.006Z,4.43
2022-08-28T22:36:22.670Z,4.35
2022-08-28T22:38:53.423Z,4.28
2022-08-28T22:41:24.368Z,4.30
2022-08-28T22:43:55.969Z,4.60
2022-08-28T22:46:25.736Z,5.07
2022-08-28T22:48:55.381Z,4.30
2022-08-28T22:51:27.577Z,4.82
2022-08-28T22:53:57.249Z,4.40
2022-08-28T22:56:26.887Z,4.00
2022-08-28T22:58:56.503Z,4.05
2022-08-28T23:01:27.635Z,4.20
2022-08-28T23:03:57.920Z,4.10
2022-08-28T23:06:30.208Z,3.97
2022-08-28T23:08:59.849Z,4.30
2022-08-28T23:11:29.430Z,4.43
2022-08-28T23:13:59.039Z,4.53
2022-08-28T23:16:28.693Z,4.20
2022-08-28T23:19:13.652Z,4.32
2022-08-28T23:21:46.217Z,3.95
2022-08-28T23:24:16.547Z,4.43
2022-08-28T23:26:46.949Z,4.53
2022-08-28T23:29:17.466Z,4.53
2022-08-28T23:31:48.731Z,4.20
2022-08-28T23:34:18.446Z,4.15
2022-08-28T23:36:50.745Z,4.68
2022-08-28T23:39:20.685Z,4.50
2022-08-28T23:41:52.864Z,5.20
2022-08-28T23:44:22.745Z,4.25
2022-08-28T23:46:52.333Z,3.95
2022-08-28T23:49:26.702Z,4.28
2022-08-28T23:51:59.212Z,4.53
2022-08-28T23:54:29.423Z,4.78
2022-08-28T23:56:59.034Z,5.00
2022-08-28T23:59:29.176Z,4.95
